Time;durP1;ratioP1;P1;durP2;ratioP2;P2;SDS_P1;SDS_P2;PMS_P1;PMS_P2;Temp;Humidity;BMP_temperature;BMP_pressure;BME280_temperature;BME280_humidity;BME280_pressure;Samples;Min_cycle;Max_cycle;Signal;HPM_P1;HPM_P2
2023/05/12 00:02:25;;;;;;;;;;;11.70;99.90;;;;;;5069847;28;19928;-73
2023/05/12 00:04:50;;;;;;;;;;;11.70;99.90;;;;;;5082048;28;20299;-73
2023/05/12 00:07:16;;;;;;;;;;;11.70;99.90;;;;;;5047405;28;19929;-75
2023/05/12 00:09:42;;;;;;;;;;;11.70;99.90;;;;;;5067356;28;19933;-75
2023/05/12 00:12:08;;;;;;;;;;;11.70;99.90;;;;;;5086413;28;19944;-76
2023/05/12 00:14:34;;;;;;;;;;;11.70;99.90;;;;;;5084642;28;19975;-76
2023/05/12 00:16:59;;;;;;;;;;;11.70;99.90;;;;;;5087276;28;20600;-76
2023/05/12 00:19:25;;;;;;;;;;;11.70;99.90;;;;;;5069625;28;19939;-76
2023/05/12 00:21:51;;;;;;;;;;;11.70;99.90;;;;;;5070143;28;19925;-77
2023/05/12 00:24:16;;;;;;;;;;;11.70;99.90;;;;;;5072316;28;19933;-77
2023/05/12 00:26:42;;;;;;;;;;;11.70;99.90;;;;;;5044052;28;19931;-77
2023/05/12 00:29:07;;;;;;;;;;;11.70;99.90;;;;;;5073638;28;19925;-77
2023/05/12 00:31:33;;;;;;;;;;;11.70;99.90;;;;;;5085844;28;19992;-77
2023/05/12 00:33:59;;;;;;;;;;;11.70;99.90;;;;;;5057226;28;19932;-77
2023/05/12 00:36:25;;;;;;;;;;;11.70;99.90;;;;;;5060315;28;20015;-77
2023/05/12 00:38:50;;;;;;;;;;;11.70;99.90;;;;;;5072409;28;19929;-77
2023/05/12 00:41:16;;;;;;;;;;;11.80;99.90;;;;;;5074391;28;19931;-77
2023/05/12 00:43:42;;;;;;;;;;;11.70;99.90;;;;;;5054907;28;19924;-77
2023/05/12 00:46:07;;;;;;;;;;;11.70;99.90;;;;;;5056458;28;19925;-77
2023/05/12 00:48:34;;;;;;;;;;;11.70;99.90;;;;;;5072595;28;19989;-77
2023/05/12 00:51:01;;;;;;;;;;;11.80;99.90;;;;;;5078502;28;19988;-77
2023/05/12 00:53:27;;;;;;;;;;;11.70;99.90;;;;;;5044545;28;19959;-78
2023/05/12 00:55:53;;;;;;;;;;;11.70;99.90;;;;;;5056079;28;20470;-77
2023/05/12 00:58:18;;;;;;;;;;;11.80;99.90;;;;;;5073656;28;19924;-77
2023/05/12 01:00:44;;;;;;;;;;;11.70;99.90;;;;;;5053078;28;19959;-77
2023/05/12 01:03:10;;;;;;;;;;;11.70;99.90;;;;;;5085678;28;20006;-77
2023/05/12 01:05:41;;;;;;;;;;;11.70;99.90;;;;;;5070547;28;19928;-77
2023/05/12 01:08:08;;;;;;;;;;;11.70;99.90;;;;;;5063331;28;19930;-77
2023/05/12 01:10:33;;;;;;;;;;;11.70;99.90;;;;;;5044326;28;19932;-77
2023/05/12 01:12:59;;;;;;;;;;;11.70;99.90;;;;;;5070524;28;19992;-77
2023/05/12 01:15:24;;;;;;;;;;;11.70;99.90;;;;;;5085589;28;19958;-77
2023/05/12 01:18:00;;;;;;;;;;;11.70;99.90;;;;;;5090306;28;19978;-77
2023/05/12 01:20:26;;;;;;;;;;;11.70;99.90;;;;;;5076727;28;20009;-78
2023/05/12 01:22:53;;;;;;;;;;;11.70;99.90;;;;;;5066205;28;19924;-77
2023/05/12 01:25:19;;;;;;;;;;;11.70;99.90;;;;;;5077873;28;19943;-77
2023/05/12 01:27:45;;;;;;;;;;;11.70;99.90;;;;;;5058342;28;19947;-77
2023/05/12 01:30:12;;;;;;;;;;;11.80;99.90;;;;;;5065113;28;19924;-77
2023/05/12 01:32:39;;;;;;;;;;;11.80;99.90;;;;;;5077605;28;20015;-77
2023/05/12 01:35:04;;;;;;;;;;;11.80;99.90;;;;;;5077241;28;19953;-77
2023/05/12 01:37:30;;;;;;;;;;;11.80;99.90;;;;;;5047197;28;20355;-77
2023/05/12 01:39:56;;;;;;;;;;;11.80;99.90;;;;;;5032747;28;19950;-77
2023/05/12 01:42:21;;;;;;;;;;;11.80;99.90;;;;;;5070928;28;19924;-77
2023/05/12 01:44:47;;;;;;;;;;;11.80;99.90;;;;;;5088964;28;19933;-77
2023/05/12 01:47:14;;;;;;;;;;;11.80;99.90;;;;;;5071490;28;19924;-77
2023/05/12 01:49:40;;;;;;;;;;;11.80;99.90;;;;;;5089895;28;19986;-78
2023/05/12 01:52:05;;;;;;;;;;;11.80;99.90;;;;;;5057505;28;19928;-77
2023/05/12 01:54:31;;;;;;;;;;;11.80;99.90;;;;;;5070863;28;19938;-78
2023/05/12 01:56:57;;;;;;;;;;;11.80;99.90;;;;;;5086655;28;19924;-78
2023/05/12 01:59:22;;;;;;;;;;;11.80;99.90;;;;;;5067445;28;19951;-77
2023/05/12 02:01:48;;;;;;;;;;;11.80;99.90;;;;;;5091192;28;20002;-78
2023/05/12 02:04:13;;;;;;;;;;;11.80;99.90;;;;;;5049593;28;19925;-77
2023/05/12 02:06:39;;;;;;;;;;;11.80;99.90;;;;;;5059883;28;19929;-78
2023/05/12 02:09:05;;;;;;;;;;;11.90;99.90;;;;;;5087002;28;19931;-77
2023/05/12 02:11:30;;;;;;;;;;;11.80;99.90;;;;;;5057668;28;19939;-77
2023/05/12 02:13:56;;;;;;;;;;;11.90;99.90;;;;;;5054876;28;19955;-77
2023/05/12 02:16:21;;;;;;;;;;;11.90;99.90;;;;;;5063439;28;20035;-77
2023/05/12 02:18:47;;;;;;;;;;;11.80;99.90;;;;;;5075394;28;19987;-78
2023/05/12 02:21:12;;;;;;;;;;;11.90;99.90;;;;;;5046769;28;19932;-78
2023/05/12 02:23:38;;;;;;;;;;;11.90;99.90;;;;;;5075309;28;19928;-78
2023/05/12 02:26:04;;;;;;;;;;;11.90;99.90;;;;;;5056111;28;19932;-77
2023/05/12 02:28:29;;;;;;;;;;;12.00;99.90;;;;;;5059001;28;19971;-77
2023/05/12 02:30:55;;;;;;;;;;;11.90;99.90;;;;;;5091335;28;19963;-77
2023/05/12 02:33:24;;;;;;;;;;;12.00;99.90;;;;;;5090901;28;19928;-77
2023/05/12 02:35:49;;;;;;;;;;;12.00;99.90;;;;;;5097384;28;19932;-78
2023/05/12 02:38:15;;;;;;;;;;;12.00;99.90;;;;;;5060165;28;20108;-77
2023/05/12 02:40:41;;;;;;;;;;;12.00;99.90;;;;;;5086701;28;20047;-77
2023/05/12 02:43:06;;;;;;;;;;;12.00;99.90;;;;;;5091021;28;19928;-77
2023/05/12 02:45:32;;;;;;;;;;;12.00;99.90;;;;;;5073493;28;20397;-78
2023/05/12 02:47:58;;;;;;;;;;;12.00;99.90;;;;;;5042846;28;19925;-78
2023/05/12 02:50:23;;;;;;;;;;;12.00;99.90;;;;;;5052785;28;20460;-78
2023/05/12 02:52:49;;;;;;;;;;;12.00;99.90;;;;;;5074159;28;19964;-78
2023/05/12 02:55:15;;;;;;;;;;;12.00;99.90;;;;;;5076597;28;19925;-77
2023/05/12 02:57:42;;;;;;;;;;;12.00;99.90;;;;;;5064349;28;19935;-78
2023/05/12 03:00:07;;;;;;;;;;;12.00;99.90;;;;;;5064435;28;19924;-77
2023/05/12 03:02:33;;;;;;;;;;;12.00;99.90;;;;;;5063808;28;19932;-78
2023/05/12 03:04:59;;;;;;;;;;;12.00;99.90;;;;;;5068621;28;19930;-78
2023/05/12 03:07:25;;;;;;;;;;;12.00;99.90;;;;;;5081078;28;19988;-77
2023/05/12 03:09:50;;;;;;;;;;;12.00;99.90;;;;;;5058123;28;19935;-78
2023/05/12 03:12:16;;;;;;;;;;;12.00;99.90;;;;;;5042514;28;19966;-77
2023/05/12 03:14:42;;;;;;;;;;;12.00;99.90;;;;;;5059416;28;19924;-78
2023/05/12 03:17:07;;;;;;;;;;;12.10;99.90;;;;;;5062266;28;19924;-77
2023/05/12 03:19:33;;;;;;;;;;;12.10;99.90;;;;;;5076104;28;19931;-77
2023/05/12 03:21:59;;;;;;;;;;;12.10;99.90;;;;;;5090658;28;19939;-77
2023/05/12 03:24:25;;;;;;;;;;;12.10;99.90;;;;;;5064255;28;19960;-77
2023/05/12 03:26:51;;;;;;;;;;;12.10;99.90;;;;;;5066085;28;19978;-77
2023/05/12 03:29:16;;;;;;;;;;;12.10;99.90;;;;;;5044840;28;20463;-77
2023/05/12 03:31:42;;;;;;;;;;;12.00;99.90;;;;;;5069176;28;19970;-78
2023/05/12 03:34:07;;;;;;;;;;;12.10;99.90;;;;;;5081999;28;19930;-77
2023/05/12 03:36:33;;;;;;;;;;;12.10;99.90;;;;;;5097828;28;19938;-77
2023/05/12 03:38:59;;;;;;;;;;;12.10;99.90;;;;;;5081600;28;19983;-77
2023/05/12 03:41:24;;;;;;;;;;;12.10;99.90;;;;;;5111486;28;19924;-77
2023/05/12 03:43:50;;;;;;;;;;;12.10;99.90;;;;;;5085549;28;20417;-77
2023/05/12 03:46:16;;;;;;;;;;;12.10;99.90;;;;;;5096885;28;19957;-77
2023/05/12 03:48:41;;;;;;;;;;;12.10;99.90;;;;;;5107526;28;19924;-77
2023/05/12 03:51:07;;;;;;;;;;;12.10;99.90;;;;;;5114428;28;19967;-77
2023/05/12 03:53:32;;;;;;;;;;;12.10;99.90;;;;;;5083935;28;19924;-77
2023/05/12 03:56:02;;;;;;;;;;;12.10;99.90;;;;;;5059301;28;19931;-77
2023/05/12 03:58:28;;;;;;;;;;;12.10;99.90;;;;;;5062913;28;20018;-77
2023/05/12 04:00:55;;;;;;;;;;;12.20;99.90;;;;;;5072890;28;20410;-77
2023/05/12 04:03:21;;;;;;;;;;;12.20;99.90;;;;;;5082834;28;19928;-77
2023/05/12 04:05:46;;;;;;;;;;;12.20;99.90;;;;;;5061151;28;19928;-77
2023/05/12 04:08:12;;;;;;;;;;;12.20;99.90;;;;;;5046964;28;19925;-77
2023/05/12 04:10:40;;;;;;;;;;;12.20;99.90;;;;;;5058933;28;20320;-77
2023/05/12 04:13:07;;;;;;;;;;;12.20;99.90;;;;;;5067931;28;19979;-77
2023/05/12 04:15:35;;;;;;;;;;;12.20;99.90;;;;;;5088183;28;19928;-77
2023/05/12 04:18:01;;;;;;;;;;;12.20;99.90;;;;;;5072168;28;19939;-77
2023/05/12 04:20:27;;;;;;;;;;;12.20;99.90;;;;;;5053786;28;19933;-77
2023/05/12 04:22:52;;;;;;;;;;;12.20;99.90;;;;;;5063257;28;19928;-77
2023/05/12 04:25:18;;;;;;;;;;;12.20;99.90;;;;;;5072455;28;20372;-77
2023/05/12 04:27:43;;;;;;;;;;;12.20;99.90;;;;;;5065510;28;20390;-77
2023/05/12 04:30:10;;;;;;;;;;;12.30;99.90;;;;;;5073950;28;19924;-77
2023/05/12 04:32:35;;;;;;;;;;;12.20;99.90;;;;;;5085576;28;19928;-77
2023/05/12 04:35:01;;;;;;;;;;;12.30;99.90;;;;;;5057805;28;19925;-77
2023/05/12 04:37:27;;;;;;;;;;;12.30;99.90;;;;;;5087074;28;19924;-77
2023/05/12 04:39:52;;;;;;;;;;;12.30;99.90;;;;;;5061451;28;19925;-77
2023/05/12 04:42:18;;;;;;;;;;;12.30;99.90;;;;;;5070744;28;19933;-77
2023/05/12 04:44:45;;;;;;;;;;;12.40;99.90;;;;;;5072654;28;19951;-77
2023/05/12 04:47:11;;;;;;;;;;;12.40;99.90;;;;;;5042975;28;19925;-77
2023/05/12 04:49:36;;;;;;;;;;;12.40;99.90;;;;;;5076637;28;19924;-77
2023/05/12 04:52:04;;;;;;;;;;;12.50;99.90;;;;;;5078405;28;20405;-77
2023/05/12 04:54:31;;;;;;;;;;;12.50;99.90;;;;;;5066692;28;19924;-77
2023/05/12 04:56:56;;;;;;;;;;;12.50;99.90;;;;;;5070833;28;20438;-77
2023/05/12 04:59:22;;;;;;;;;;;12.50;99.90;;;;;;5065307;28;19987;-78
2023/05/12 05:01:48;;;;;;;;;;;12.50;99.90;;;;;;5100738;28;19931;-78
2023/05/12 05:04:14;;;;;;;;;;;12.60;99.90;;;;;;5093056;28;19928;-77
2023/05/12 05:06:40;;;;;;;;;;;12.60;99.90;;;;;;5073778;28;20413;-78
2023/05/12 05:09:06;;;;;;;;;;;12.60;99.90;;;;;;5068882;28;20363;-77
2023/05/12 05:11:31;;;;;;;;;;;12.60;99.90;;;;;;5052024;28;19930;-77
2023/05/12 05:13:57;;;;;;;;;;;12.70;99.90;;;;;;5064111;28;20509;-77
2023/05/12 05:16:23;;;;;;;;;;;12.70;99.90;;;;;;5046151;28;19967;-77
2023/05/12 05:18:48;;;;;;;;;;;12.80;99.90;;;;;;5068349;28;19936;-77
2023/05/12 05:21:14;;;;;;;;;;;12.80;99.90;;;;;;5091283;28;19927;-77
2023/05/12 05:23:40;;;;;;;;;;;12.80;99.90;;;;;;5090014;28;19928;-77
2023/05/12 05:26:06;;;;;;;;;;;12.90;99.90;;;;;;5078040;28;19928;-77
2023/05/12 05:28:32;;;;;;;;;;;12.90;99.90;;;;;;5069816;28;19990;-77
2023/05/12 05:30:58;;;;;;;;;;;12.90;99.90;;;;;;5085734;28;19924;-77
2023/05/12 05:33:23;;;;;;;;;;;13.00;99.90;;;;;;5056077;28;19924;-77
2023/05/12 05:35:49;;;;;;;;;;;13.00;99.90;;;;;;5076998;28;19924;-77
2023/05/12 05:38:15;;;;;;;;;;;13.00;99.90;;;;;;5103835;28;19947;-77
2023/05/12 05:40:40;;;;;;;;;;;13.00;99.90;;;;;;5086714;28;19924;-77
2023/05/12 05:43:06;;;;;;;;;;;13.00;99.90;;;;;;5083122;28;19935;-77
2023/05/12 05:45:32;;;;;;;;;;;12.90;99.90;;;;;;5086633;28;19930;-77
2023/05/12 05:47:57;;;;;;;;;;;13.00;99.90;;;;;;5058159;28;19931;-77
2023/05/12 05:50:23;;;;;;;;;;;13.00;99.90;;;;;;5102739;28;19944;-76
2023/05/12 05:52:49;;;;;;;;;;;13.00;99.90;;;;;;5088238;28;19948;-77
2023/05/12 05:55:14;;;;;;;;;;;13.00;99.90;;;;;;5067778;28;19924;-77
2023/05/12 05:57:40;;;;;;;;;;;13.00;99.90;;;;;;5067158;28;19959;-78
2023/05/12 06:00:08;;;;;;;;;;;13.00;99.90;;;;;;5064668;28;19927;-77
2023/05/12 06:02:34;;;;;;;;;;;13.10;99.90;;;;;;5067371;28;19924;-77
2023/05/12 06:05:00;;;;;;;;;;;13.10;99.90;;;;;;5080932;28;19928;-77
2023/05/12 06:07:26;;;;;;;;;;;13.10;99.90;;;;;;5064941;28;19989;-77
2023/05/12 06:09:52;;;;;;;;;;;13.10;99.90;;;;;;5095441;28;19924;-78
2023/05/12 06:12:17;;;;;;;;;;;13.00;99.90;;;;;;5064069;28;19935;-77
2023/05/12 06:14:43;;;;;;;;;;;13.10;99.90;;;;;;5087181;28;19970;-77
2023/05/12 06:17:08;;;;;;;;;;;13.10;99.90;;;;;;5054354;28;20028;-77
2023/05/12 06:19:34;;;;;;;;;;;13.10;99.90;;;;;;5066116;28;19931;-77
2023/05/12 06:21:59;;;;;;;;;;;13.10;99.90;;;;;;5097459;28;19931;-77
2023/05/12 06:24:25;;;;;;;;;;;13.10;99.90;;;;;;5047925;28;19928;-77
2023/05/12 06:26:51;;;;;;;;;;;13.20;99.90;;;;;;5053308;28;20234;-77
2023/05/12 06:29:16;;;;;;;;;;;13.20;99.90;;;;;;5077851;28;19937;-78
2023/05/12 06:31:42;;;;;;;;;;;13.20;99.90;;;;;;5079830;28;20037;-77
2023/05/12 06:34:07;;;;;;;;;;;13.20;99.90;;;;;;5078318;28;20061;-78
2023/05/12 06:36:33;;;;;;;;;;;13.20;99.90;;;;;;5076530;28;19939;-78
2023/05/12 06:38:59;;;;;;;;;;;13.20;99.90;;;;;;5049003;28;19959;-77
2023/05/12 06:41:24;;;;;;;;;;;13.20;99.90;;;;;;5092874;28;19930;-77
2023/05/12 06:43:50;;;;;;;;;;;13.30;99.90;;;;;;5063343;28;19934;-78
2023/05/12 06:46:16;;;;;;;;;;;13.30;99.90;;;;;;5064999;28;19950;-78
2023/05/12 06:48:42;;;;;;;;;;;13.30;99.90;;;;;;5079632;28;20649;-78
2023/05/12 06:51:08;;;;;;;;;;;13.40;99.90;;;;;;5092239;28;19978;-77
2023/05/12 06:53:36;;;;;;;;;;;13.50;99.90;;;;;;5079207;28;19968;-77
2023/05/12 06:56:05;;;;;;;;;;;13.60;99.90;;;;;;5093206;28;19924;-77
2023/05/12 06:58:31;;;;;;;;;;;13.60;99.90;;;;;;5078978;28;19924;-78
2023/05/12 07:00:56;;;;;;;;;;;13.70;99.90;;;;;;5065947;28;19949;-78
2023/05/12 07:03:22;;;;;;;;;;;13.80;99.90;;;;;;5066205;28;19931;-77
2023/05/12 07:05:48;;;;;;;;;;;13.90;99.90;;;;;;5087003;28;19961;-77
2023/05/12 07:08:14;;;;;;;;;;;14.00;99.90;;;;;;5065713;28;19924;-77
2023/05/12 07:10:39;;;;;;;;;;;14.10;99.90;;;;;;5119975;27;19975;-78
2023/05/12 07:13:05;;;;;;;;;;;14.10;99.90;;;;;;5084530;28;19924;-77
2023/05/12 07:15:31;;;;;;;;;;;14.10;99.90;;;;;;5085903;28;19963;-77
2023/05/12 07:17:56;;;;;;;;;;;14.20;99.90;;;;;;5057054;28;20747;-78
2023/05/12 07:20:22;;;;;;;;;;;14.30;99.90;;;;;;5084390;28;19978;-78
2023/05/12 07:22:48;;;;;;;;;;;14.40;99.90;;;;;;5068178;28;19924;-78
2023/05/12 07:25:14;;;;;;;;;;;14.50;99.90;;;;;;5071747;28;19945;-78
2023/05/12 07:27:40;;;;;;;;;;;14.60;99.90;;;;;;5064145;28;20068;-77
2023/05/12 07:30:06;;;;;;;;;;;14.70;99.90;;;;;;5102365;28;19975;-77
2023/05/12 07:32:31;;;;;;;;;;;14.70;99.90;;;;;;5101554;28;19949;-77
2023/05/12 07:34:57;;;;;;;;;;;14.70;99.90;;;;;;5120307;27;20319;-78
2023/05/12 07:37:23;;;;;;;;;;;14.80;99.90;;;;;;5062681;28;19924;-78
2023/05/12 07:39:48;;;;;;;;;;;14.80;99.90;;;;;;5076084;28;19928;-78
2023/05/12 07:42:14;;;;;;;;;;;14.90;99.90;;;;;;5075036;28;19928;-78
2023/05/12 07:44:40;;;;;;;;;;;15.00;99.90;;;;;;5059498;28;20535;-78
2023/05/12 07:47:06;;;;;;;;;;;15.10;99.90;;;;;;5057280;28;19924;-78
2023/05/12 07:49:31;;;;;;;;;;;15.20;99.90;;;;;;5067102;28;20442;-78
2023/05/12 07:51:57;;;;;;;;;;;15.30;99.90;;;;;;5107421;28;19945;-77
2023/05/12 07:54:23;;;;;;;;;;;15.30;99.90;;;;;;5068679;28;20024;-77
2023/05/12 07:56:48;;;;;;;;;;;15.40;99.90;;;;;;5064925;28;19924;-78
2023/05/12 07:59:14;;;;;;;;;;;15.40;99.90;;;;;;5103758;28;19934;-78
2023/05/12 08:01:40;;;;;;;;;;;15.30;99.90;;;;;;5054855;28;19928;-78
2023/05/12 08:04:05;;;;;;;;;;;15.30;99.90;;;;;;5073383;28;19924;-78
2023/05/12 08:06:31;;;;;;;;;;;15.30;99.90;;;;;;5079561;28;19945;-77
2023/05/12 08:08:57;;;;;;;;;;;15.30;99.90;;;;;;5125599;27;19924;-78
2023/05/12 08:11:23;;;;;;;;;;;15.30;99.90;;;;;;5078160;28;19946;-78
2023/05/12 08:13:49;;;;;;;;;;;15.30;99.90;;;;;;5077549;28;19924;-77
2023/05/12 08:16:14;;;;;;;;;;;15.30;99.90;;;;;;5083211;28;19963;-78
2023/05/12 08:18:40;;;;;;;;;;;15.30;99.90;;;;;;5076555;28;20015;-78
2023/05/12 08:21:06;;;;;;;;;;;15.30;99.90;;;;;;5081202;28;20329;-78
2023/05/12 08:23:31;;;;;;;;;;;15.40;99.90;;;;;;5083110;28;20454;-78
2023/05/12 08:25:57;;;;;;;;;;;15.40;99.90;;;;;;5063375;28;19932;-78
2023/05/12 08:28:22;;;;;;;;;;;15.40;99.90;;;;;;5087094;28;19931;-78
2023/05/12 08:30:48;;;;;;;;;;;15.40;99.90;;;;;;5090315;28;19971;-78
2023/05/12 08:33:13;;;;;;;;;;;15.50;99.90;;;;;;5061528;28;19924;-78
2023/05/12 08:35:39;;;;;;;;;;;15.60;99.90;;;;;;5079217;28;19924;-78
2023/05/12 08:38:05;;;;;;;;;;;15.70;99.90;;;;;;5077157;28;20030;-77
2023/05/12 08:40:33;;;;;;;;;;;15.90;99.90;;;;;;5094914;28;20358;-78
2023/05/12 08:43:06;;;;;;;;;;;15.90;99.90;;;;;;5073686;28;19924;-78
2023/05/12 08:45:34;;;;;;;;;;;16.00;99.90;;;;;;5094179;28;20424;-77
2023/05/12 08:48:01;;;;;;;;;;;16.20;99.90;;;;;;5063759;28;19931;-77
2023/05/12 08:50:28;;;;;;;;;;;16.30;99.90;;;;;;5093285;28;19957;-78
2023/05/12 08:52:54;;;;;;;;;;;16.50;99.90;;;;;;5078319;28;19928;-77
2023/05/12 08:55:20;;;;;;;;;;;16.50;99.90;;;;;;5060911;28;19932;-78
2023/05/12 08:57:47;;;;;;;;;;;16.50;99.90;;;;;;5096448;28;19943;-78
2023/05/12 09:00:13;;;;;;;;;;;16.50;99.90;;;;;;5077520;28;19969;-78
2023/05/12 09:02:42;;;;;;;;;;;16.70;99.90;;;;;;5076874;28;20003;-77
2023/05/12 09:05:08;;;;;;;;;;;16.80;99.90;;;;;;5069430;28;19924;-78
2023/05/12 09:07:35;;;;;;;;;;;16.90;99.90;;;;;;5064112;28;20454;-78
2023/05/12 09:10:02;;;;;;;;;;;17.00;99.90;;;;;;5081234;28;19924;-78
2023/05/12 09:12:30;;;;;;;;;;;17.10;99.90;;;;;;5063330;28;19963;-78
2023/05/12 09:15:09;;;;;;;;;;;17.10;99.90;;;;;;5095417;28;20382;-78
2023/05/12 09:17:34;;;;;;;;;;;17.20;99.90;;;;;;5081899;28;20383;-78
2023/05/12 09:20:01;;;;;;;;;;;17.30;99.90;;;;;;5066565;28;19924;-78
2023/05/12 09:22:27;;;;;;;;;;;17.50;99.90;;;;;;5068072;28;20071;-78
2023/05/12 09:24:53;;;;;;;;;;;17.60;99.90;;;;;;5044210;28;19928;-78
2023/05/12 09:27:28;;;;;;;;;;;17.80;99.90;;;;;;5074755;28;19930;-78
2023/05/12 09:29:54;;;;;;;;;;;17.80;99.90;;;;;;5059593;28;19931;-78
2023/05/12 09:32:33;;;;;;;;;;;18.00;99.90;;;;;;5091044;28;19924;-78
2023/05/12 09:35:06;;;;;;;;;;;18.00;99.90;;;;;;5063917;28;19924;-78
2023/05/12 09:37:33;;;;;;;;;;;18.20;99.90;;;;;;5075595;28;19928;-78
2023/05/12 09:40:06;;;;;;;;;;;18.30;99.90;;;;;;5079989;28;20399;-78
2023/05/12 09:42:32;;;;;;;;;;;18.30;99.90;;;;;;5075955;28;20362;-78
2023/05/12 09:45:01;;;;;;;;;;;18.20;99.90;;;;;;5074160;28;19940;-78
2023/05/12 09:47:28;;;;;;;;;;;18.20;99.90;;;;;;5067503;28;20243;-78
2023/05/12 09:49:56;;;;;;;;;;;18.30;99.90;;;;;;5076240;28;20382;-78
2023/05/12 09:52:22;;;;;;;;;;;18.40;99.90;;;;;;5065844;28;19928;-78
2023/05/12 09:54:47;;;;;;;;;;;18.70;99.90;;;;;;5064080;28;19979;-78
2023/05/12 09:57:14;;;;;;;;;;;19.20;99.90;;;;;;5064376;28;19928;-78
2023/05/12 09:59:42;;;;;;;;;;;19.60;99.90;;;;;;5064999;28;20000;-78
2023/05/12 10:02:08;;;;;;;;;;;19.70;99.90;;;;;;5074058;28;19932;-78
2023/05/12 10:04:40;;;;;;;;;;;19.60;99.90;;;;;;5076084;28;20190;-78
2023/05/12 10:07:10;;;;;;;;;;;19.70;99.90;;;;;;5061203;28;19928;-79
2023/05/12 10:09:38;;;;;;;;;;;19.80;99.90;;;;;;5078247;28;19934;-78
2023/05/12 10:12:05;;;;;;;;;;;19.90;99.90;;;;;;5060003;28;19924;-78
2023/05/12 10:14:30;;;;;;;;;;;20.30;99.90;;;;;;5073662;28;19924;-79
2023/05/12 10:16:56;;;;;;;;;;;20.60;99.90;;;;;;5091378;28;19968;-79
2023/05/12 10:19:23;;;;;;;;;;;20.70;99.90;;;;;;5095505;28;19931;-79
2023/05/12 10:21:49;;;;;;;;;;;20.80;99.90;;;;;;5091978;28;19923;-79
2023/05/12 10:24:18;;;;;;;;;;;20.80;99.90;;;;;;5085696;28;19947;-79
2023/05/12 10:26:44;;;;;;;;;;;20.70;99.90;;;;;;5080968;28;19931;-79
2023/05/12 10:29:10;;;;;;;;;;;20.70;99.90;;;;;;5081711;28;19971;-79
2023/05/12 10:31:37;;;;;;;;;;;20.80;99.90;;;;;;5085951;28;19924;-79
2023/05/12 10:34:03;;;;;;;;;;;20.70;99.90;;;;;;5085962;28;19935;-79
2023/05/12 10:36:28;;;;;;;;;;;20.80;99.90;;;;;;5081786;28;19924;-80
2023/05/12 10:38:54;;;;;;;;;;;20.90;99.90;;;;;;5071384;28;19954;-79
2023/05/12 10:41:30;;;;;;;;;;;21.10;99.90;;;;;;5096593;28;19952;-79
2023/05/12 10:43:55;;;;;;;;;;;21.10;99.90;;;;;;5075305;28;19924;-79
2023/05/12 10:46:23;;;;;;;;;;;21.10;99.90;;;;;;5050113;28;20413;-79
2023/05/12 10:48:48;;;;;;;;;;;21.20;99.90;;;;;;5066458;28;19924;-79
2023/05/12 10:51:18;;;;;;;;;;;21.10;99.90;;;;;;5101052;28;19973;-79
2023/05/12 10:53:43;;;;;;;;;;;21.10;99.90;;;;;;5070008;28;19945;-79
2023/05/12 10:56:09;;;;;;;;;;;21.40;99.90;;;;;;5086454;28;19924;-79
2023/05/12 10:58:34;;;;;;;;;;;21.70;99.90;;;;;;5068445;28;19959;-79
2023/05/12 11:01:04;;;;;;;;;;;21.80;99.90;;;;;;5077190;28;19978;-80
2023/05/12 11:03:32;;;;;;;;;;;21.70;99.90;;;;;;5065997;28;19930;-79
2023/05/12 11:06:02;;;;;;;;;;;21.60;99.90;;;;;;5095789;28;19928;-79
2023/05/12 11:08:28;;;;;;;;;;;21.50;99.90;;;;;;5096649;28;19927;-79
2023/05/12 11:10:53;;;;;;;;;;;21.30;99.90;;;;;;5081222;28;20492;-80
2023/05/12 11:13:20;;;;;;;;;;;21.30;99.90;;;;;;5063870;28;19924;-79
2023/05/12 11:15:46;;;;;;;;;;;21.30;99.90;;;;;;5079038;28;19924;-79
2023/05/12 11:18:12;;;;;;;;;;;21.40;99.90;;;;;;5068270;28;19946;-79
2023/05/12 11:20:37;;;;;;;;;;;21.30;99.90;;;;;;5080374;28;19968;-79
2023/05/12 11:23:03;;;;;;;;;;;21.30;99.90;;;;;;5052164;28;20010;-79
2023/05/12 11:25:29;;;;;;;;;;;21.30;99.90;;;;;;5069118;28;19931;-79
2023/05/12 11:27:54;;;;;;;;;;;21.30;99.90;;;;;;5087198;28;19983;-79
2023/05/12 11:30:20;;;;;;;;;;;21.40;99.90;;;;;;5064787;28;19935;-79
2023/05/12 11:32:46;;;;;;;;;;;21.40;99.90;;;;;;5068995;28;19928;-79
2023/05/12 11:35:12;;;;;;;;;;;21.60;99.90;;;;;;5080938;28;19976;-79
2023/05/12 11:37:39;;;;;;;;;;;21.70;99.90;;;;;;5069869;28;19967;-79
2023/05/12 11:40:18;;;;;;;;;;;21.90;99.90;;;;;;5050022;28;19935;-79
2023/05/12 11:42:47;;;;;;;;;;;22.10;99.90;;;;;;5065076;28;19924;-78
2023/05/12 11:45:27;;;;;;;;;;;22.20;99.90;;;;;;5055457;28;19924;-79
2023/05/12 11:48:04;;;;;;;;;;;22.20;99.90;;;;;;5095052;28;19946;-83
2023/05/12 11:50:29;;;;;;;;;;;22.40;99.90;;;;;;5065250;28;19928;-82
2023/05/12 11:52:56;;;;;;;;;;;22.50;99.90;;;;;;5078658;28;19924;-83
2023/05/12 11:55:23;;;;;;;;;;;22.70;99.90;;;;;;5063236;28;19924;-83
2023/05/12 11:57:56;;;;;;;;;;;22.70;99.90;;;;;;5095133;28;19996;-83
2023/05/12 12:00:26;;;;;;;;;;;22.90;99.90;;;;;;5083943;28;19939;-83
2023/05/12 12:02:51;;;;;;;;;;;23.00;99.90;;;;;;5091356;28;19924;-83
2023/05/12 12:05:17;;;;;;;;;;;23.00;99.90;;;;;;5074947;28;19932;-83
2023/05/12 12:07:43;;;;;;;;;;;23.10;99.90;;;;;;5047458;28;19925;-83
2023/05/12 12:10:10;;;;;;;;;;;23.10;99.90;;;;;;5109086;28;19931;-83
2023/05/12 12:12:36;;;;;;;;;;;23.20;99.90;;;;;;5076549;28;19924;-84
2023/05/12 12:15:01;;;;;;;;;;;23.40;99.90;;;;;;5092466;28;20283;-83
2023/05/12 12:17:30;;;;;;;;;;;23.40;99.90;;;;;;5074059;28;19928;-83
2023/05/12 12:19:56;;;;;;;;;;;23.40;99.90;;;;;;5085957;28;19924;-84
2023/05/12 12:22:22;;;;;;;;;;;23.40;99.90;;;;;;5094833;28;20011;-83
2023/05/12 12:24:47;;;;;;;;;;;23.40;99.90;;;;;;5091185;28;19979;-83
2023/05/12 12:27:13;;;;;;;;;;;23.40;99.90;;;;;;5059621;28;19929;-82
2023/05/12 12:29:38;;;;;;;;;;;23.40;99.90;;;;;;5074649;28;19956;-81
2023/05/12 12:32:04;;;;;;;;;;;23.40;99.90;;;;;;5075875;28;19925;-83
2023/05/12 12:34:30;;;;;;;;;;;23.40;99.90;;;;;;5126297;27;19935;-82
2023/05/12 12:36:56;;;;;;;;;;;23.60;99.90;;;;;;5067269;28;20403;-83
2023/05/12 12:39:22;;;;;;;;;;;23.60;99.90;;;;;;5062666;28;19983;-83
2023/05/12 12:41:47;;;;;;;;;;;23.70;99.90;;;;;;5060901;28;19924;-84
2023/05/12 12:44:13;;;;;;;;;;;23.70;99.90;;;;;;5066760;28;20076;-83
2023/05/12 12:46:39;;;;;;;;;;;23.80;99.90;;;;;;5071212;28;19928;-83
2023/05/12 12:49:04;;;;;;;;;;;23.90;99.90;;;;;;5078589;28;20402;-84
2023/05/12 12:51:31;;;;;;;;;;;24.00;99.90;;;;;;5043556;28;20390;-83
2023/05/12 12:53:57;;;;;;;;;;;24.00;99.90;;;;;;5060697;28;19967;-84
2023/05/12 12:56:24;;;;;;;;;;;24.00;99.90;;;;;;5084791;28;19936;-86
2023/05/12 12:58:50;;;;;;;;;;;23.90;99.90;;;;;;5075878;28;19924;-86
2023/05/12 13:01:15;;;;;;;;;;;24.00;99.90;;;;;;5070102;28;19958;-84
2023/05/12 13:03:41;;;;;;;;;;;24.00;99.90;;;;;;5093268;28;19929;-84
2023/05/12 13:06:07;;;;;;;;;;;23.70;95.20;;;;;;5090755;28;19928;-85
2023/05/12 13:08:32;;;;;;;;;;;23.30;94.70;;;;;;5064766;28;19925;-85
2023/05/12 13:10:59;;;;;;;;;;;23.10;97.70;;;;;;5048249;28;19970;-84
2023/05/12 13:13:24;;;;;;;;;;;23.10;98.00;;;;;;5066300;28;20360;-84
2023/05/12 13:15:51;;;;;;;;;;;23.20;99.90;;;;;;5072744;28;20054;-85
2023/05/12 13:18:17;;;;;;;;;;;23.50;94.40;;;;;;5081356;28;19982;-85
2023/05/12 13:20:43;;;;;;;;;;;23.70;97.20;;;;;;5090647;28;19928;-84
2023/05/12 13:23:08;;;;;;;;;;;24.00;99.90;;;;;;5047553;28;19924;-84
2023/05/12 13:25:34;;;;;;;;;;;24.00;95.30;;;;;;5046201;28;20003;-84
2023/05/12 13:27:59;;;;;;;;;;;24.00;93.10;;;;;;5082115;28;19924;-76
2023/05/12 13:30:25;;;;;;;;;;;23.90;95.00;;;;;;5087795;28;19928;-79
2023/05/12 13:32:50;;;;;;;;;;;23.80;92.60;;;;;;5090565;28;20015;-79
2023/05/12 13:35:16;;;;;;;;;;;23.50;92.50;;;;;;5052749;28;19949;-79
2023/05/12 13:37:42;;;;;;;;;;;23.20;99.90;;;;;;5065113;28;19924;-79
2023/05/12 13:40:08;;;;;;;;;;;22.80;92.50;;;;;;5072532;28;19951;-79
2023/05/12 13:42:34;;;;;;;;;;;22.60;96.30;;;;;;5077855;28;19931;-79
2023/05/12 13:45:00;;;;;;;;;;;22.30;93.10;;;;;;5064861;28;19924;-79
2023/05/12 13:47:26;;;;;;;;;;;22.20;99.50;;;;;;5084187;28;19924;-78
2023/05/12 13:49:51;;;;;;;;;;;22.10;99.90;;;;;;5078142;28;19923;-78
2023/05/12 13:52:17;;;;;;;;;;;22.30;96.00;;;;;;5057340;28;19928;-78
2023/05/12 13:54:43;;;;;;;;;;;22.60;96.30;;;;;;5056622;28;19924;-78
2023/05/12 13:57:08;;;;;;;;;;;22.80;94.20;;;;;;5103127;28;19930;-79
2023/05/12 13:59:34;;;;;;;;;;;22.90;99.90;;;;;;5087083;28;19945;-78
2023/05/12 14:02:00;;;;;;;;;;;22.80;83.50;;;;;;5050473;28;19955;-79
2023/05/12 14:04:25;;;;;;;;;;;22.60;93.50;;;;;;5053495;28;19963;-77
2023/05/12 14:06:51;;;;;;;;;;;22.50;94.70;;;;;;5068711;28;19983;-76
2023/05/12 14:09:17;;;;;;;;;;;22.40;93.10;;;;;;5089322;28;19970;-81
2023/05/12 14:11:42;;;;;;;;;;;22.40;94.50;;;;;;5093143;28;19924;-80